Time;durP1;ratioP1;P1;durP2;ratioP2;P2;SDS_P1;SDS_P2;PMS_P1;PMS_P2;Temp;Humidity;BMP_temperature;BMP_pressure;BME280_temperature;BME280_humidity;BME280_pressure;Samples;Min_cycle;Max_cycle;Signal;HPM_P1;HPM_P2
2022/09/08 00:02:13;;;;;;;2.30;2.20;;;24.30;99.90;;;;;;4995103;28;20466;-63
2022/09/08 00:04:40;;;;;;;2.20;2.10;;;24.30;99.90;;;;;;4996779;28;20450;-64
2022/09/08 00:07:07;;;;;;;2.33;2.23;;;24.30;99.90;;;;;;4992591;28;20877;-63
2022/09/08 00:09:36;;;;;;;1.97;1.87;;;24.30;99.90;;;;;;4992672;28;20455;-64
2022/09/08 00:12:04;;;;;;;2.70;2.50;;;24.30;99.90;;;;;;5010433;28;20496;-64
2022/09/08 00:14:33;;;;;;;2.17;2.07;;;24.30;99.90;;;;;;5012045;28;20446;-64
2022/09/08 00:17:02;;;;;;;2.30;2.10;;;24.30;99.90;;;;;;5012159;28;20541;-64
2022/09/08 00:19:29;;;;;;;2.13;2.03;;;24.30;99.90;;;;;;5011691;28;20480;-64
2022/09/08 00:21:56;;;;;;;2.90;2.73;;;24.30;99.90;;;;;;4994177;28;20499;-64
2022/09/08 00:24:23;;;;;;;2.40;2.23;;;24.20;99.90;;;;;;4992314;28;20450;-63
2022/09/08 00:26:51;;;;;;;2.30;2.10;;;24.20;99.90;;;;;;4992349;28;20529;-63
2022/09/08 00:29:18;;;;;;;2.37;2.20;;;24.20;99.90;;;;;;4992362;28;20531;-64
2022/09/08 00:31:45;;;;;;;2.27;2.17;;;24.20;99.90;;;;;;5007428;28;20509;-63
2022/09/08 00:34:11;;;;;;;4.53;2.10;;;24.20;99.90;;;;;;5011674;28;20524;-64
2022/09/08 00:36:38;;;;;;;2.63;2.43;;;24.20;99.90;;;;;;5011728;28;20530;-64
2022/09/08 00:39:05;;;;;;;3.23;2.93;;;24.10;99.90;;;;;;5003915;28;20534;-63
2022/09/08 00:41:32;;;;;;;2.33;2.23;;;24.10;99.90;;;;;;4991663;28;20463;-63
2022/09/08 00:44:38;;;;;;;2.23;2.13;;;24.10;99.90;;;;;;4991499;28;20450;-65
2022/09/08 00:47:11;;;;;;;1.90;1.80;;;24.10;99.90;;;;;;4996077;28;20454;-63
2022/09/08 00:49:38;;;;;;;2.10;2.00;;;24.10;99.90;;;;;;5011252;28;20485;-64
2022/09/08 00:52:05;;;;;;;2.57;2.37;;;24.10;99.90;;;;;;5011167;28;20474;-65
2022/09/08 00:54:32;;;;;;;2.00;1.90;;;24.10;99.90;;;;;;5011157;28;20450;-64
2022/09/08 00:56:59;;;;;;;2.90;2.30;;;24.10;99.90;;;;;;5007566;28;20885;-64
2022/09/08 00:59:27;;;;;;;1.60;1.47;;;24.10;99.90;;;;;;4991765;28;20884;-63
2022/09/08 01:01:55;;;;;;;2.70;2.00;;;24.10;99.90;;;;;;4991424;28;20576;-64
2022/09/08 01:04:22;;;;;;;1.87;1.77;;;24.10;99.90;;;;;;4991813;28;20969;-63
2022/09/08 01:12:44;;;;;;;2.13;2.03;;;24.10;99.90;;;;;;4991061;28;20498;-64
2022/09/08 01:15:18;;;;;;;2.20;2.10;;;24.10;99.90;;;;;;4991463;28;20473;-64
2022/09/08 01:17:47;;;;;;;2.10;2.00;;;24.10;99.90;;;;;;4991810;28;20459;-64
2022/09/08 01:20:15;;;;;;;2.40;2.20;;;24.10;99.90;;;;;;4991365;28;20477;-64
2022/09/08 01:23:03;;;;;;;2.90;2.67;;;24.10;99.90;;;;;;4991119;28;20838;-64
2022/09/08 01:25:55;;;;;;;1.90;1.80;;;24.00;99.90;;;;;;4991141;28;20451;-65
2022/09/08 01:28:29;;;;;;;2.70;1.97;;;24.00;99.90;;;;;;5005182;28;20457;-64
2022/09/08 01:30:56;;;;;;;1.93;1.83;;;24.00;99.90;;;;;;5010504;28;20446;-64
2022/09/08 01:33:23;;;;;;;2.30;2.20;;;24.00;99.90;;;;;;5010646;28;20541;-64
2022/09/08 01:35:51;;;;;;;2.27;2.07;;;24.00;99.90;;;;;;5010461;28;20490;-64
2022/09/08 01:38:18;;;;;;;3.60;2.50;;;24.00;99.90;;;;;;5005485;28;20442;-63
2022/09/08 01:40:44;;;;;;;3.37;2.47;;;24.00;99.90;;;;;;4992823;28;20949;-64
2022/09/08 01:43:11;;;;;;;2.83;2.63;;;24.00;99.90;;;;;;4990819;28;20542;-63
2022/09/08 01:45:41;;;;;;;3.47;1.80;;;23.90;99.90;;;;;;4990936;28;20542;-63
2022/09/08 01:48:09;;;;;;;2.13;2.03;;;24.00;99.90;;;;;;5002279;28;20480;-64
2022/09/08 01:50:36;;;;;;;2.30;2.20;;;24.00;99.90;;;;;;5010313;28;20453;-64
2022/09/08 01:53:03;;;;;;;2.47;2.37;;;24.00;99.90;;;;;;5010133;28;20496;-64
2022/09/08 01:55:30;;;;;;;2.57;2.33;;;23.90;99.90;;;;;;5009272;28;20456;-64
2022/09/08 01:57:57;;;;;;;2.67;2.47;;;23.90;99.90;;;;;;4999886;28;20542;-64
2022/09/08 02:00:24;;;;;;;2.40;2.20;;;23.90;99.90;;;;;;5004146;28;20442;-63
2022/09/08 02:02:52;;;;;;;3.83;2.00;;;23.90;99.90;;;;;;5010118;28;20549;-62
2022/09/08 02:05:19;;;;;;;2.77;2.60;;;23.90;99.90;;;;;;5009826;28;20480;-63
2022/09/08 02:07:46;;;;;;;2.13;2.03;;;23.90;99.90;;;;;;4993746;28;20541;-63
2022/09/08 02:10:13;;;;;;;2.80;2.60;;;23.90;99.90;;;;;;4990501;28;20541;-63
2022/09/08 02:12:40;;;;;;;2.43;2.33;;;23.90;99.90;;;;;;4990283;28;20509;-63
2022/09/08 02:15:08;;;;;;;3.53;2.20;;;23.90;99.90;;;;;;4990436;28;20450;-63
2022/09/08 02:17:35;;;;;;;2.90;2.70;;;23.90;99.90;;;;;;5008463;28;20457;-64
2022/09/08 02:20:04;;;;;;;2.40;2.20;;;23.90;99.90;;;;;;5009981;28;20533;-64
2022/09/08 02:22:32;;;;;;;2.67;2.50;;;23.90;99.90;;;;;;5009782;28;20471;-64
2022/09/08 02:24:59;;;;;;;4.00;2.03;;;23.80;99.90;;;;;;5009728;28;20458;-63
2022/09/08 02:27:26;;;;;;;2.30;2.10;;;23.90;99.90;;;;;;5009010;28;20478;-63
2022/09/08 02:29:52;;;;;;;3.10;2.80;;;23.80;99.90;;;;;;5009956;28;20485;-64
2022/09/08 02:32:19;;;;;;;2.37;2.27;;;23.80;99.90;;;;;;5009586;28;20553;-64
2022/09/08 02:34:46;;;;;;;2.23;2.03;;;23.80;99.90;;;;;;5000758;28;20514;-64
2022/09/08 02:37:14;;;;;;;2.73;2.63;;;23.80;99.90;;;;;;4990135;28;20794;-64
2022/09/08 02:39:41;;;;;;;2.23;2.13;;;23.80;99.90;;;;;;4990010;28;20543;-64
2022/09/08 02:42:11;;;;;;;1.80;1.73;;;23.80;99.90;;;;;;4990104;28;21081;-63
2022/09/08 02:44:38;;;;;;;5.27;2.40;;;23.80;99.90;;;;;;5009472;28;20441;-64
2022/09/08 02:47:05;;;;;;;2.10;2.00;;;23.80;99.90;;;;;;5009459;28;20866;-63
2022/09/08 02:49:33;;;;;;;2.10;1.97;;;23.80;99.90;;;;;;5009803;28;20548;-64
2022/09/08 02:52:00;;;;;;;2.30;2.20;;;23.80;99.90;;;;;;4996599;28;20471;-65
2022/09/08 02:54:28;;;;;;;1.90;1.83;;;23.80;99.90;;;;;;4990105;28;20493;-63
2022/09/08 02:56:55;;;;;;;2.03;1.83;;;23.70;99.90;;;;;;4990000;28;20541;-64
2022/09/08 02:59:22;;;;;;;2.13;2.03;;;23.70;99.90;;;;;;4990376;28;20457;-64
2022/09/08 03:01:49;;;;;;;2.47;2.30;;;23.70;99.90;;;;;;5000696;28;20474;-63
2022/09/08 03:04:16;;;;;;;3.17;1.83;;;23.60;99.90;;;;;;5009518;28;20448;-63
2022/09/08 03:06:43;;;;;;;2.17;2.00;;;23.70;99.90;;;;;;5009261;28;20456;-63
2022/09/08 03:09:10;;;;;;;2.67;2.57;;;23.60;99.90;;;;;;5009348;28;20453;-63
2022/09/08 03:11:39;;;;;;;2.00;1.90;;;23.60;99.90;;;;;;4999809;28;20550;-64
2022/09/08 03:14:06;;;;;;;1.70;1.60;;;23.60;99.90;;;;;;4989858;28;20498;-63
2022/09/08 03:16:33;;;;;;;2.27;1.73;;;23.60;99.90;;;;;;4989996;28;20451;-65
2022/09/08 03:19:00;;;;;;;1.70;1.70;;;23.50;99.90;;;;;;4990085;28;21031;-64
2022/09/08 03:21:27;;;;;;;2.20;2.00;;;23.60;99.90;;;;;;4997136;28;20510;-64
2022/09/08 03:23:54;;;;;;;1.93;1.83;;;23.60;99.90;;;;;;5009223;28;20443;-64
2022/09/08 03:26:22;;;;;;;2.00;1.80;;;23.50;99.90;;;;;;5009452;28;20523;-64
2022/09/08 03:28:50;;;;;;;2.23;2.13;;;23.50;99.90;;;;;;5009245;28;20450;-64
2022/09/08 03:31:19;;;;;;;2.30;2.17;;;23.50;99.90;;;;;;5008605;28;20557;-64
2022/09/08 03:33:46;;;;;;;1.70;1.60;;;23.50;99.90;;;;;;5009677;28;20590;-62
2022/09/08 03:36:14;;;;;;;1.90;1.43;;;23.50;99.90;;;;;;5008727;28;20449;-60
2022/09/08 03:38:42;;;;;;;2.30;2.00;;;23.40;99.90;;;;;;5008673;28;20450;-63
2022/09/08 03:41:12;;;;;;;1.50;1.40;;;23.50;99.90;;;;;;5008175;28;20924;-61
2022/09/08 03:43:43;;;;;;;1.80;1.70;;;23.40;99.90;;;;;;5008786;28;20933;-60
2022/09/08 03:46:11;;;;;;;1.80;1.70;;;23.40;99.90;;;;;;5008783;28;20454;-62
2022/09/08 03:48:38;;;;;;;1.83;1.73;;;23.40;99.90;;;;;;5008412;28;20450;-63
2022/09/08 03:51:09;;;;;;;2.30;2.07;;;23.40;99.90;;;;;;5004155;28;20473;-61
2022/09/08 03:53:36;;;;;;;2.53;2.23;;;23.30;99.90;;;;;;4988776;28;20582;-61
2022/09/08 03:56:06;;;;;;;2.07;1.97;;;23.30;99.90;;;;;;4989054;28;20453;-63
2022/09/08 03:58:33;;;;;;;2.17;2.07;;;23.20;99.90;;;;;;4988919;28;20457;-61
2022/09/08 04:01:00;;;;;;;1.80;1.67;;;23.20;99.90;;;;;;4990441;28;20819;-63
2022/09/08 04:03:29;;;;;;;2.70;1.53;;;23.20;99.90;;;;;;5008289;28;20450;-61
2022/09/08 04:05:56;;;;;;;1.80;1.40;;;23.20;99.90;;;;;;4991824;28;20447;-60
2022/09/08 04:08:23;;;;;;;1.60;1.50;;;23.20;99.90;;;;;;4989038;28;20482;-62
2022/09/08 04:10:49;;;;;;;2.77;1.70;;;23.20;99.90;;;;;;4988464;28;20542;-62
2022/09/08 04:13:16;;;;;;;1.80;1.70;;;23.30;99.90;;;;;;4989617;28;20542;-53
2022/09/08 04:15:43;;;;;;;2.90;1.80;;;23.30;99.90;;;;;;4988751;28;20731;-57
2022/09/08 04:18:10;;;;;;;1.83;1.53;;;23.40;99.90;;;;;;4990494;28;20541;-56
2022/09/08 04:20:39;;;;;;;2.00;1.90;;;23.50;99.90;;;;;;4991714;28;20967;-56
2022/09/08 04:23:06;;;;;;;1.43;1.33;;;23.50;99.90;;;;;;4994821;28;20476;-56
2022/09/08 04:25:33;;;;;;;1.60;1.47;;;23.60;99.90;;;;;;5011489;28;20448;-56
2022/09/08 04:28:00;;;;;;;2.30;2.00;;;23.60;99.90;;;;;;5011326;28;20974;-57
2022/09/08 04:30:27;;;;;;;3.27;2.10;;;23.60;99.90;;;;;;5009528;28;20538;-60
2022/09/08 04:32:54;;;;;;;5.00;2.80;;;23.70;99.90;;;;;;4994433;28;20474;-64
2022/09/08 04:35:21;;;;;;;3.50;2.40;;;23.80;99.90;;;;;;5009187;28;20477;-62
2022/09/08 04:37:49;;;;;;;4.33;2.30;;;23.80;99.90;;;;;;5011329;28;20477;-64
2022/09/08 04:40:16;;;;;;;4.33;2.27;;;23.80;99.90;;;;;;5011226;28;20540;-64
2022/09/08 04:42:43;;;;;;;8.23;3.00;;;23.90;99.90;;;;;;5011153;28;20481;-63
2022/09/08 04:45:11;;;;;;;2.70;1.60;;;23.90;99.90;;;;;;5010839;28;20537;-61
2022/09/08 04:47:37;;;;;;;2.40;1.53;;;23.90;99.90;;;;;;5011155;28;20489;-62
2022/09/08 04:50:05;;;;;;;2.20;1.60;;;23.90;99.90;;;;;;5011110;28;20453;-64
2022/09/08 04:52:32;;;;;;;5.03;2.63;;;23.90;99.90;;;;;;5010559;28;20492;-62
2022/09/08 04:55:02;;;;;;;2.40;2.07;;;23.90;99.90;;;;;;5010817;28;20485;-63
2022/09/08 04:57:29;;;;;;;5.13;1.53;;;24.00;99.90;;;;;;5010906;28;20476;-63
2022/09/08 04:59:56;;;;;;;1.90;1.33;;;24.00;99.90;;;;;;5011064;28;20507;-64
2022/09/08 05:02:23;;;;;;;2.27;2.07;;;24.00;99.90;;;;;;5010762;28;20902;-63
2022/09/08 05:04:50;;;;;;;3.53;2.27;;;24.00;99.90;;;;;;5011028;28;20478;-64
2022/09/08 05:07:17;;;;;;;2.97;1.93;;;24.00;99.90;;;;;;5010883;28;20909;-63
2022/09/08 05:09:44;;;;;;;1.93;1.83;;;24.00;99.90;;;;;;5010724;28;20448;-64
2022/09/08 05:12:13;;;;;;;2.60;1.80;;;24.10;99.90;;;;;;5010526;28;20482;-64
2022/09/08 05:14:39;;;;;;;2.17;1.80;;;24.10;99.90;;;;;;5010624;28;20508;-64
2022/09/08 05:17:06;;;;;;;1.80;1.70;;;24.10;99.90;;;;;;5010720;28;20458;-64
2022/09/08 05:19:33;;;;;;;4.43;2.60;;;24.10;99.90;;;;;;5010454;28;21060;-63
2022/09/08 05:22:00;;;;;;;2.13;2.03;;;24.10;99.90;;;;;;5010189;28;20462;-64
2022/09/08 05:24:27;;;;;;;2.20;1.60;;;24.10;99.90;;;;;;5010585;28;20452;-64
2022/09/08 05:26:53;;;;;;;3.47;2.20;;;24.10;99.90;;;;;;5010478;28;21012;-64
2022/09/08 05:29:22;;;;;;;3.13;1.83;;;24.10;99.90;;;;;;5010436;28;20541;-64
2022/09/08 05:31:50;;;;;;;2.77;1.70;;;24.10;99.90;;;;;;5010009;28;20565;-64
2022/09/08 05:34:16;;;;;;;2.20;1.50;;;24.20;99.90;;;;;;5010379;28;20482;-64
2022/09/08 05:36:43;;;;;;;1.70;1.60;;;24.10;99.90;;;;;;5010275;28;20442;-64
2022/09/08 05:39:10;;;;;;;4.93;1.67;;;24.10;99.90;;;;;;5010200;28;20933;-63
2022/09/08 05:41:37;;;;;;;5.47;1.80;;;24.20;99.90;;;;;;5010093;28;20577;-63
2022/09/08 05:44:05;;;;;;;1.47;1.37;;;24.20;99.90;;;;;;5010219;28;20438;-63
2022/09/08 05:46:34;;;;;;;1.80;1.50;;;24.20;99.90;;;;;;5010088;28;20542;-64
2022/09/08 05:49:01;;;;;;;1.40;1.30;;;24.20;99.90;;;;;;5010140;28;20489;-64
2022/09/08 05:51:30;;;;;;;2.40;1.90;;;24.20;99.90;;;;;;5009819;28;20458;-64
2022/09/08 05:53:59;;;;;;;1.50;1.50;;;24.20;99.90;;;;;;5010104;28;20484;-63
2022/09/08 05:56:26;;;;;;;2.13;1.93;;;24.20;99.90;;;;;;5010163;28;20454;-63
2022/09/08 05:58:54;;;;;;;2.80;1.83;;;24.20;99.90;;;;;;5010042;28;20887;-63
2022/09/08 06:01:21;;;;;;;1.70;1.33;;;24.20;99.90;;;;;;5009707;28;20553;-64
2022/09/08 06:03:52;;;;;;;2.00;1.90;;;24.20;99.90;;;;;;5009921;28;20852;-62
2022/09/08 06:06:20;;;;;;;1.93;1.80;;;24.20;99.90;;;;;;5009995;28;20937;-61
2022/09/08 06:08:47;;;;;;;1.93;1.83;;;24.20;99.90;;;;;;5009798;28;20802;-63
2022/09/08 06:11:14;;;;;;;2.00;1.63;;;24.30;99.90;;;;;;5009560;28;20469;-62
2022/09/08 06:13:41;;;;;;;1.57;1.33;;;24.20;99.90;;;;;;5009978;28;21016;-64
2022/09/08 06:16:11;;;;;;;1.90;1.20;;;24.30;99.90;;;;;;5009749;28;20448;-62
2022/09/08 06:18:39;;;;;;;1.37;1.30;;;24.20;99.90;;;;;;5009856;28;20538;-64
2022/09/08 06:21:10;;;;;;;2.00;1.60;;;24.20;99.90;;;;;;5009579;28;20470;-61
2022/09/08 06:23:37;;;;;;;1.83;1.70;;;24.20;99.90;;;;;;5009695;28;20450;-63
2022/09/08 06:26:28;;;;;;;1.70;1.60;;;24.30;99.90;;;;;;5009668;28;20446;-63
2022/09/08 06:29:04;;;;;;;1.77;1.53;;;24.30;99.90;;;;;;5009523;28;20545;-62
2022/09/08 06:31:33;;;;;;;1.53;1.43;;;24.30;99.90;;;;;;5009290;28;20474;-64
2022/09/08 06:34:07;;;;;;;1.27;1.20;;;24.30;99.90;;;;;;5009450;28;20442;-63
2022/09/08 06:36:43;;;;;;;3.80;1.43;;;24.20;99.90;;;;;;5009766;28;20451;-64
2022/09/08 06:39:20;;;;;;;2.23;1.03;;;24.30;99.90;;;;;;5009496;28;20940;-61
2022/09/08 06:41:50;;;;;;;2.27;1.80;;;24.30;99.90;;;;;;5008601;28;20474;-64
2022/09/08 06:44:22;;;;;;;1.47;1.37;;;24.30;99.90;;;;;;5009374;28;20448;-63
2022/09/08 06:46:49;;;;;;;1.40;1.30;;;24.30;99.90;;;;;;5009446;28;20827;-63
2022/09/08 06:49:16;;;;;;;2.93;1.50;;;24.30;99.90;;;;;;5009158;28;20877;-62
2022/09/08 06:51:55;;;;;;;3.43;1.30;;;24.30;99.90;;;;;;5008965;28;20474;-64
2022/09/08 06:54:41;;;;;;;0.90;0.90;;;24.30;99.90;;;;;;5009160;28;21004;-64
2022/09/08 06:57:23;;;;;;;1.17;1.17;;;24.30;99.90;;;;;;5009186;28;20553;-64
2022/09/08 07:00:02;;;;;;;1.53;1.33;;;24.30;99.90;;;;;;5009332;28;20533;-62
2022/09/08 07:02:52;;;;;;;2.00;1.90;;;24.30;99.90;;;;;;5008847;28;20462;-63
2022/09/08 07:05:47;;;;;;;2.10;1.30;;;24.30;99.90;;;;;;5009063;28;20500;-64
2022/09/08 07:08:32;;;;;;;1.30;1.20;;;24.30;99.90;;;;;;5009011;28;20465;-64
2022/09/08 07:11:07;;;;;;;1.20;1.20;;;24.30;99.90;;;;;;5008780;28;20456;-65
2022/09/08 07:13:39;;;;;;;1.87;1.63;;;24.30;99.90;;;;;;5009345;28;20801;-64
2022/09/08 07:16:16;;;;;;;1.50;1.40;;;24.30;99.90;;;;;;5009048;28;21008;-64
2022/09/08 07:18:49;;;;;;;1.50;1.00;;;24.30;99.90;;;;;;5008894;28;20507;-64
2022/09/08 07:21:25;;;;;;;1.77;1.60;;;24.30;99.90;;;;;;5008561;28;20484;-63
2022/09/08 07:23:55;;;;;;;1.03;1.03;;;24.30;99.90;;;;;;5008879;28;20442;-64
2022/09/08 07:26:30;;;;;;;1.33;1.30;;;24.30;99.90;;;;;;5008871;28;20438;-64
2022/09/08 07:29:05;;;;;;;1.33;1.23;;;24.30;99.90;;;;;;5008996;28;20471;-62
2022/09/08 07:31:35;;;;;;;0.80;0.80;;;24.30;99.90;;;;;;5008553;28;20545;-62
2022/09/08 07:34:06;;;;;;;1.10;1.10;;;24.30;99.90;;;;;;5008584;28;20536;-61
2022/09/08 07:36:40;;;;;;;1.43;1.33;;;24.30;99.90;;;;;;5008574;28;20449;-65
2022/09/08 07:39:19;;;;;;;1.70;1.70;;;24.30;99.90;;;;;;5008641;28;20833;-64
2022/09/08 07:41:48;;;;;;;3.10;2.30;;;24.30;99.90;;;;;;5008418;28;20554;-63
2022/09/08 07:44:17;;;;;;;1.10;1.10;;;24.30;99.90;;;;;;5008534;28;20934;-65
2022/09/08 07:47:04;;;;;;;0.87;0.87;;;24.30;99.90;;;;;;5008670;28;21012;-64
2022/09/08 07:49:39;;;;;;;1.10;1.00;;;24.30;99.90;;;;;;5008762;28;20950;-64
2022/09/08 07:52:16;;;;;;;1.17;1.00;;;24.30;99.90;;;;;;5008589;28;20472;-65
2022/09/08 07:55:01;;;;;;;1.30;1.20;;;24.30;99.90;;;;;;5011903;28;20477;-64
2022/09/08 07:57:36;;;;;;;1.30;1.30;;;24.30;99.90;;;;;;5012018;28;20453;-64
2022/09/08 08:00:10;;;;;;;1.53;1.43;;;24.30;99.90;;;;;;5011945;28;21000;-65
2022/09/08 08:03:05;;;;;;;1.00;1.00;;;24.30;99.90;;;;;;5011543;28;20866;-63
2022/09/08 08:05:41;;;;;;;1.20;1.20;;;24.30;99.90;;;;;;5011805;28;20445;-63
2022/09/08 08:08:16;;;;;;;1.30;1.20;;;24.30;99.90;;;;;;5011794;28;20480;-65
2022/09/08 08:10:51;;;;;;;0.70;0.70;;;24.30;99.90;;;;;;5011607;28;20529;-64
2022/09/08 08:13:29;;;;;;;1.07;1.07;;;24.30;99.90;;;;;;5011586;28;20442;-63
2022/09/08 08:16:02;;;;;;;0.80;0.80;;;24.30;99.80;;;;;;5011774;28;20507;-65
2022/09/08 08:18:40;;;;;;;1.13;1.13;;;24.30;99.80;;;;;;5011581;28;20524;-64
2022/09/08 08:21:13;;;;;;;1.03;0.93;;;24.30;99.70;;;;;;5011122;28;20480;-64
2022/09/08 08:23:57;;;;;;;1.37;1.30;;;24.30;99.70;;;;;;5011591;28;20453;-65
2022/09/08 08:26:34;;;;;;;1.53;1.50;;;24.30;99.60;;;;;;5011655;28;20446;-64
2022/09/08 08:29:22;;;;;;;1.00;1.00;;;24.40;99.60;;;;;;5013160;28;20449;-66
2022/09/08 08:31:54;;;;;;;1.07;1.00;;;24.30;99.50;;;;;;5014046;28;20462;-67
2022/09/08 08:34:27;;;;;;;1.30;1.30;;;24.30;99.50;;;;;;5013099;28;20472;-67
2022/09/08 08:36:59;;;;;;;0.80;0.80;;;24.30;99.50;;;;;;5013027;28;20529;-67
2022/09/08 08:39:27;;;;;;;1.23;1.23;;;24.30;99.40;;;;;;5013065;28;20492;-67
2022/09/08 08:42:07;;;;;;;0.80;0.80;;;24.30;99.40;;;;;;5012598;28;20465;-67
2022/09/08 08:44:49;;;;;;;1.10;1.00;;;24.30;99.30;;;;;;5012813;28;20496;-68
2022/09/08 08:47:39;;;;;;;1.10;1.00;;;24.30;99.30;;;;;;5012526;28;20959;-67
2022/09/08 08:50:47;;;;;;;1.57;0.80;;;24.30;99.20;;;;;;5012446;28;20524;-67
2022/09/08 08:53:49;;;;;;;1.00;1.00;;;24.30;99.20;;;;;;5012367;28;20957;-67
2022/09/08 08:56:22;;;;;;;1.20;1.20;;;24.30;99.10;;;;;;5012215;28;20492;-67
2022/09/08 08:59:06;;;;;;;1.00;1.00;;;24.30;99.10;;;;;;5011840;28;20534;-66
2022/09/08 09:01:49;;;;;;;0.80;0.80;;;24.30;99.10;;;;;;5011749;28;20462;-67
2022/09/08 09:04:45;;;;;;;0.90;0.90;;;24.30;99.00;;;;;;5012210;28;20816;-67
2022/09/08 09:07:41;;;;;;;0.90;0.90;;;24.40;99.00;;;;;;5011133;28;21023;-66
2022/09/08 09:10:33;;;;;;;1.20;1.13;;;24.30;98.90;;;;;;5010879;28;20449;-68
2022/09/08 09:13:22;;;;;;;0.90;0.90;;;24.30;98.80;;;;;;5010936;28;20469;-67
2022/09/08 09:16:23;;;;;;;0.90;0.90;;;24.30;98.80;;;;;;4998477;28;20485;-68
2022/09/08 09:19:19;;;;;;;1.33;1.27;;;24.30;98.70;;;;;;5011399;28;20553;-66
2022/09/08 09:21:52;;;;;;;1.17;1.07;;;24.30;98.70;;;;;;4991291;28;20810;-66
2022/09/08 09:24:39;;;;;;;0.80;0.80;;;24.30;98.60;;;;;;4991883;28;20451;-67
2022/09/08 09:27:14;;;;;;;1.17;0.87;;;24.30;98.60;;;;;;4991439;28;20557;-66
2022/09/08 09:29:42;;;;;;;1.10;1.10;;;24.40;98.60;;;;;;4991615;28;20509;-66
2022/09/08 09:32:42;;;;;;;0.80;0.80;;;24.30;98.50;;;;;;4991001;28;20474;-66
2022/09/08 09:35:35;;;;;;;0.70;0.70;;;24.40;98.50;;;;;;4989210;28;20539;-65
2022/09/08 09:38:37;;;;;;;0.70;0.70;;;24.40;98.40;;;;;;4958436;28;20451;-66
2022/09/08 09:41:36;;;;;;;1.23;0.83;;;24.40;98.40;;;;;;4990571;28;20550;-65
2022/09/08 09:44:22;;;;;;;1.07;0.70;;;24.40;98.40;;;;;;4965464;28;20447;-65
2022/09/08 09:47:14;;;;;;;0.80;0.80;;;24.40;98.30;;;;;;4990614;28;20461;-67
2022/09/08 09:50:04;;;;;;;0.70;0.70;;;24.30;98.30;;;;;;4984094;28;20458;-66
2022/09/08 09:52:41;;;;;;;1.20;1.20;;;24.40;98.30;;;;;;4981276;28;20511;-65
2022/09/08 09:55:27;;;;;;;0.80;0.80;;;24.40;98.20;;;;;;4990518;28;20573;-66
2022/09/08 09:58:32;;;;;;;1.00;1.00;;;24.40;98.10;;;;;;4990509;28;20451;-66
2022/09/08 10:01:22;;;;;;;1.53;1.43;;;24.40;98.10;;;;;;4972714;28;20502;-67
2022/09/08 10:04:25;;;;;;;0.80;0.80;;;24.40;98.10;;;;;;4990535;28;20450;-65
2022/09/08 10:07:18;;;;;;;0.90;0.90;;;24.40;98.00;;;;;;4979680;28;20461;-66
2022/09/08 10:10:11;;;;;;;1.23;0.73;;;24.40;98.00;;;;;;4990472;28;20805;-65
2022/09/08 10:13:09;;;;;;;0.80;0.80;;;24.40;98.00;;;;;;4990056;28;20471;-66
2022/09/08 10:16:09;;;;;;;0.80;0.80;;;24.40;97.90;;;;;;4989278;28;20997;-66
2022/09/08 10:19:08;;;;;;;0.67;0.67;;;24.40;97.90;;;;;;4957653;28;20455;-66
2022/09/08 10:22:04;;;;;;;0.70;0.70;;;24.40;97.80;;;;;;5010101;28;20564;-65
2022/09/08 10:25:07;;;;;;;0.80;0.80;;;24.40;97.80;;;;;;5007211;28;20892;-65
2022/09/08 10:28:09;;;;;;;1.00;1.00;;;24.50;97.80;;;;;;5007067;28;20450;-65
2022/09/08 10:31:11;;;;;;;0.77;0.77;;;24.50;97.80;;;;;;5009408;28;20450;-65
2022/09/08 10:34:14;;;;;;;0.70;0.70;;;24.40;97.70;;;;;;5009521;28;20996;-65
2022/09/08 10:37:00;;;;;;;0.80;0.80;;;24.40;97.70;;;;;;5009505;28;20482;-66
2022/09/08 10:39:40;;;;;;;0.83;0.83;;;24.50;97.70;;;;;;5009502;28;20519;-65
2022/09/08 10:42:46;;;;;;;1.10;1.00;;;24.50;97.60;;;;;;5009101;28;20473;-65
2022/09/08 10:45:41;;;;;;;1.13;1.10;;;24.50;97.60;;;;;;5011697;28;20967;-65
2022/09/08 10:48:51;;;;;;;0.80;0.80;;;24.50;97.50;;;;;;5009278;28;20453;-65
2022/09/08 10:52:08;;;;;;;0.90;0.90;;;24.50;97.50;;;;;;5009043;28;20461;-67
2022/09/08 10:54:57;;;;;;;0.70;0.70;;;24.50;97.40;;;;;;5018403;28;20454;-66
2022/09/08 10:57:44;;;;;;;1.07;0.80;;;24.50;97.40;;;;;;5009268;28;20450;-66
2022/09/08 11:00:16;;;;;;;1.00;1.00;;;24.50;97.40;;;;;;5009042;28;20545;-65
2022/09/08 11:03:14;;;;;;;0.90;0.90;;;24.50;97.30;;;;;;5008948;28;20458;-66
2022/09/08 11:05:49;;;;;;;0.90;0.90;;;24.50;97.30;;;;;;5009170;28;20529;-64
2022/09/08 11:08:52;;;;;;;0.83;0.83;;;24.50;97.20;;;;;;5009055;28;20951;-66
2022/09/08 11:11:40;;;;;;;1.27;0.80;;;24.50;97.10;;;;;;5008849;28;20830;-65
2022/09/08 11:14:28;;;;;;;0.50;0.50;;;24.50;97.10;;;;;;5008927;28;20449;-67
2022/09/08 11:17:17;;;;;;;0.70;0.70;;;24.50;97.00;;;;;;5008916;28;20486;-65
2022/09/08 11:19:48;;;;;;;0.93;0.87;;;24.50;97.00;;;;;;5008829;28;20461;-65
2022/09/08 11:22:43;;;;;;;1.00;1.00;;;24.50;97.20;;;;;;5008577;28;20467;-66
2022/09/08 11:25:39;;;;;;;0.70;0.70;;;24.60;96.90;;;;;;5009144;28;20446;-66
2022/09/08 11:28:17;;;;;;;0.67;0.67;;;24.60;96.80;;;;;;5012058;28;20449;-65
2022/09/08 11:30:54;;;;;;;0.80;0.80;;;24.60;96.80;;;;;;5012230;28;20448;-65
2022/09/08 11:33:41;;;;;;;0.83;0.80;;;24.60;96.70;;;;;;5012164;28;20444;-65
2022/09/08 11:36:23;;;;;;;0.80;0.80;;;24.60;96.70;;;;;;5012177;28;20854;-66
2022/09/08 11:39:01;;;;;;;0.77;0.60;;;24.60;96.60;;;;;;5012336;28;20482;-65
2022/09/08 11:41:51;;;;;;;0.63;0.63;;;24.60;96.90;;;;;;5011909;28;20556;-65
2022/09/08 11:44:40;;;;;;;0.80;0.80;;;24.60;96.50;;;;;;5012139;28;20438;-65
2022/09/08 11:47:36;;;;;;;0.80;0.80;;;24.60;96.40;;;;;;5012250;28;20521;-66
2022/09/08 11:50:28;;;;;;;0.50;0.50;;;24.60;96.40;;;;;;5012061;28;20446;-66
2022/09/08 11:53:40;;;;;;;0.70;0.70;;;24.60;96.30;;;;;;5002333;28;20478;-66
2022/09/08 11:56:44;;;;;;;0.60;0.60;;;24.60;96.30;;;;;;5023755;28;20843;-66
2022/09/08 11:59:28;;;;;;;0.80;0.80;;;24.60;96.20;;;;;;4951274;29;20448;-65
2022/09/08 12:02:16;;;;;;;0.50;0.50;;;24.60;96.10;;;;;;5004144;28;20553;-66
2022/09/08 12:04:57;;;;;;;0.70;0.70;;;24.70;96.20;;;;;;5011978;28;20453;-65
2022/09/08 12:07:56;;;;;;;0.60;0.60;;;24.70;96.10;;;;;;5011820;28;20452;-65
2022/09/08 12:10:50;;;;;;;1.00;1.00;;;24.70;96.10;;;;;;5011716;28;20951;-66
2022/09/08 12:13:30;;;;;;;0.80;0.80;;;24.70;96.00;;;;;;5011722;28;20578;-66
2022/09/08 12:16:40;;;;;;;0.70;0.70;;;24.70;95.90;;;;;;5011805;28;21030;-66
2022/09/08 12:19:21;;;;;;;1.13;0.80;;;24.70;95.90;;;;;;5011859;28;20514;-66
2022/09/08 12:22:15;;;;;;;0.90;0.90;;;24.70;95.80;;;;;;4991890;28;20534;-65
2022/09/08 12:25:21;;;;;;;0.80;0.80;;;24.70;95.80;;;;;;4991924;28;20449;-66
2022/09/08 12:28:10;;;;;;;0.70;0.70;;;24.70;95.70;;;;;;4992163;28;20446;-65
2022/09/08 12:30:54;;;;;;;0.80;0.80;;;24.70;95.70;;;;;;4991709;28;20940;-65
2022/09/08 12:33:51;;;;;;;0.60;0.60;;;24.70;95.60;;;;;;4991760;28;20537;-66
2022/09/08 12:36:24;;;;;;;0.90;0.70;;;24.70;95.60;;;;;;4991783;28;20486;-65
2022/09/08 12:39:08;;;;;;;0.83;0.83;;;24.70;95.50;;;;;;4990987;28;20451;-65
2022/09/08 12:41:48;;;;;;;0.73;0.73;;;24.80;95.50;;;;;;4991520;28;21056;-66
2022/09/08 12:44:39;;;;;;;0.80;0.80;;;24.80;95.40;;;;;;4991670;28;20451;-65
2022/09/08 12:47:19;;;;;;;0.60;0.60;;;24.80;95.40;;;;;;4991629;28;20969;-66
2022/09/08 12:50:03;;;;;;;0.60;0.60;;;24.80;95.30;;;;;;4991695;28;20526;-66
2022/09/08 12:52:46;;;;;;;1.33;0.60;;;24.80;95.20;;;;;;4991206;28;20471;-66
2022/09/08 12:55:23;;;;;;;0.70;0.70;;;24.80;95.20;;;;;;4991478;28;20821;-66
2022/09/08 12:57:54;;;;;;;0.60;0.60;;;24.80;95.10;;;;;;4991338;28;20533;-65
2022/09/08 13:00:26;;;;;;;0.50;0.50;;;24.90;95.10;;;;;;4991364;28;20443;-66
2022/09/08 13:03:29;;;;;;;0.50;0.50;;;24.90;95.10;;;;;;4991206;28;20490;-66
2022/09/08 13:06:23;;;;;;;0.67;0.67;;;24.90;95.00;;;;;;4983001;28;20487;-62
2022/09/08 13:08:58;;;;;;;1.03;0.93;;;24.90;94.50;;;;;;4986815;28;20497;-63
2022/09/08 13:11:40;;;;;;;0.97;0.97;;;24.90;93.00;;;;;;4971596;28;20467;-62
2022/09/08 13:14:10;;;;;;;0.80;0.80;;;24.90;92.20;;;;;;4977255;28;20483;-63
2022/09/08 13:16:48;;;;;;;0.60;0.60;;;24.90;91.90;;;;;;4991321;28;20486;-62
2022/09/08 13:19:25;;;;;;;1.00;0.90;;;24.90;91.40;;;;;;4991412;28;20450;-60
2022/09/08 13:22:14;;;;;;;1.00;0.90;;;24.90;90.90;;;;;;5010324;28;20476;-62
2022/09/08 13:24:49;;;;;;;0.70;0.70;;;24.90;90.50;;;;;;5000520;28;20958;-63
2022/09/08 13:27:32;;;;;;;0.83;0.83;;;24.90;90.50;;;;;;4990958;28;20876;-64
2022/09/08 13:30:09;;;;;;;0.70;0.60;;;24.90;90.50;;;;;;4990943;28;20438;-64
2022/09/08 13:32:57;;;;;;;0.70;0.70;;;24.90;90.50;;;;;;4990618;28;20992;-63
2022/09/08 13:35:41;;;;;;;0.70;0.70;;;24.90;90.20;;;;;;5006083;28;20452;-64
2022/09/08 13:38:24;;;;;;;1.43;0.70;;;24.90;89.70;;;;;;5004870;28;20482;-62
2022/09/08 13:41:02;;;;;;;0.70;0.70;;;24.90;89.50;;;;;;4990405;28;20451;-60
2022/09/08 13:44:05;;;;;;;1.10;0.70;;;24.90;89.00;;;;;;4990755;28;20545;-60